Los Angeles, CA (90019)

12:50 PM PDT on May 25, 2015 (GMT -0700)
CBS Radio Miracle Mile | | Change Station
CLOSE
Current Station
Personal Weather Station
Location: Los Angeles, CA
Elevation: 292 ft
Nearby Weather Stations

Elev 292 ft 34.06 °N, 118.35 °W | Updated 41 seconds ago

Overcast
Overcast
63.6 °F
Feels Like 63.6 °F
N
3.0
Wind Variable Wind from SW

Today
High -- | Low -- °F
--% Chance of Precip.
Yesterday
High -- | Low -- °F
Precip. -- in
5:45 AM 7:55 PM
Waxing Crescent, 51% visible
Pressure 30.00 in
Visibility 9.0 miles
Clouds Overcast 2500 ft
Dew Point 54 °F
Humidity 72%
Rainfall 0.00 in
Snow Depth Not available.
UV 3 out of 12
Pollen 3.90 out of 12
Air Quality Not available.
Flu Activity Sporadic
METAR KCQT 251847Z AUTO 00000KT 9SM OVC025 18/12 A3001 RMK AO2 SLP159 T01830122

More Conditions Fewer Conditions

Pressure 30.00 in
Visibility 9.0 miles
Clouds Overcast 2500 ft
Dew Point 54 °F
Humidity 72%
Rainfall 0.00 in
Snow Depth Not available.
UV 3 out of 12
Pollen 3.90 out of 12
Air Quality Not available.
Flu Activity Sporadic
METAR KCQT 251847Z AUTO 00000KT 9SM OVC025 18/12 A3001 RMK AO2 SLP159 T01830122

More Conditions Fewer Conditions

10-Day Weather Forecast

Almanac

Astronomy

May. 25, 2015 Rise Set
Actual Time
Civil Twilight
Nautical Twilight
Astronomical Twilight
Moon
Length of Visible Light
Length of Day
Tomorrow will be .
, % of the Moon is Illuminated

Today's Extremes

State Highs State Lows

Community

WunderPhotos

Upload Photos

1,824,102 photos uploaded!

WunderBlogs® & News

Nearby

Air Quality

  Air Quality AQ Index Pollutant
Not available.

Snow Depth

Station Depth Elevation

Earthquake Activity

City Distance Mag. Time & Date
Minimum magnitude displayed is 2.5.

Coastal Water Temperatures

Place Temperature

Stations

Nearby Weather Stations

Station Location Temp. Windchill Dew Point Humidity Wind Precip. Elev Updated Type